Portada
METAR-TAF:

METAR-TAF

Aeropuertos :

Aeropuerto Internacional de El Cairo

El Cairo, Egipto

latitud: 30-08N, longitud: 031-24E, altitud: 64 m

Observación

El informe se hizo hace 1 hora y 10 minutos, a las 01:30 UTC
Viento 7 kt del norte-noroeste
Temperatura 19°C
Humedad 73%
Presión 1017 hPa
Visibilidad 10 km o más
Nubes dispersas a una altura de 2500 ft

METAR: HECA 280130Z 33007KT 9999 SCT025 19/14 Q1017 NOSIG

Hora: 04:40 (02:40 UTC)

Pronóstico

El informe se hizo hace 3 horas y 40 minutos, a las 23:00 UTC
Pronóstico válido del 28 a las 00 UTC al 29 a las 06 UTC
Viento 9 kt del norte
Visibilidad 10 km o más
Nubes dispersas a una altura de 2500 ft

TAF: HECA 272300Z 2800/2906 36009KT 9999 SCT025

Observaciones y pronósticos meteorológicos de más de 4000 aeropuertos (mensajes METAR y TAF).

Los puntos amarillos y rojos representan las estaciones disponibles.

Ponga el ratón en el punto deseado para ver el nombre de la estación.

Haga clic para ver las observaciones y los pronósticos meteorológicos.

Para cambiar el mapa : haga clic en los botones verdes con una cruz de color negro para hacer un zoom, en el botón verde con un guión para alejar o en las flechas verdes para mapas adyacentes.


METAR-TAF: